BAW221 EGLL-KSTL
Flight info
| Callsign | BAW221 |
|---|---|
| Flight time | N/A |
| Altitude | 36000 |
| Route | CPT5J CPT L9 BUCGO DCT FELCA DCT OFSOX DCT SLANY DCT MALOT/M085F380 DCT 54N020W 54N030W 54N040W 53N050W DCT RIKAL/N0483F380 N576B ANATI/N0488F400 DCT ROSVO DCT ECK DCT GIJ DCT RBS AARCH2 |
| Aircraft | B789/H-SDE1E2E3FGHIJ2J3J4J5M1RWXY/LB1D1 |
Departure
| Time | 2026-05-05 19:34 |
|---|---|
| Airport | London Heathrow Airport (EGLL) |
Arrival
| Time | N/A |
|---|---|
| Airport | St. Louis Lambert International Airport (KSTL) |
| Time | Latitude | Longitude | Altitude | Speed | Heading |
|---|---|---|---|---|---|
| 2026-05-05 18:57 | 51.47114 | -0.48235 | 92 ft | 0 kts | 90° |
| 2026-05-05 19:19 | 51.47114 | -0.48237 | 92 ft | 1 kts | 90° |
| 2026-05-05 19:19 | 51.47114 | -0.48263 | 92 ft | 3 kts | 90° |
| 2026-05-05 19:19 | 51.47114 | -0.48293 | 92 ft | 3 kts | 91° |
| 2026-05-05 19:19 | 51.47116 | -0.48324 | 93 ft | 3 kts | 114° |
| 2026-05-05 19:20 | 51.47126 | -0.48348 | 91 ft | 3 kts | 150° |
| 2026-05-05 19:20 | 51.47144 | -0.48359 | 93 ft | 3 kts | 175° |
| 2026-05-05 19:20 | 51.47161 | -0.48360 | 93 ft | 1 kts | 180° |
| 2026-05-05 19:20 | 51.47164 | -0.48360 | 93 ft | 0 kts | 180° |
| 2026-05-05 19:22 | 51.47146 | -0.48359 | 94 ft | 3 kts | 180° |
| 2026-05-05 19:22 | 51.47102 | -0.48359 | 92 ft | 8 kts | 180° |
| 2026-05-05 19:23 | 51.47039 | -0.48359 | 95 ft | 9 kts | 180° |
| 2026-05-05 19:23 | 51.46970 | -0.48358 | 95 ft | 10 kts | 180° |
| 2026-05-05 19:23 | 51.46894 | -0.48358 | 95 ft | 11 kts | 180° |
| 2026-05-05 19:23 | 51.46846 | -0.48357 | 95 ft | 4 kts | 179° |
| 2026-05-05 19:24 | 51.46814 | -0.48357 | 95 ft | 7 kts | 180° |
| 2026-05-05 19:24 | 51.46776 | -0.48356 | 93 ft | 2 kts | 180° |
| 2026-05-05 19:24 | 51.46758 | -0.48359 | 93 ft | 2 kts | 191° |
| 2026-05-05 19:24 | 51.46748 | -0.48381 | 96 ft | 6 kts | 235° |
| 2026-05-05 19:25 | 51.46741 | -0.48479 | 92 ft | 10 kts | 268° |
| 2026-05-05 19:25 | 51.46740 | -0.48594 | 92 ft | 11 kts | 269° |
| 2026-05-05 19:25 | 51.46738 | -0.48711 | 92 ft | 8 kts | 258° |
| 2026-05-05 19:25 | 51.46704 | -0.48748 | 94 ft | 6 kts | 198° |
| 2026-05-05 19:26 | 51.46672 | -0.48750 | 95 ft | 2 kts | 178° |
| 2026-05-05 19:26 | 51.46667 | -0.48750 | 95 ft | 0 kts | 178° |
| 2026-05-05 19:30 | 51.46664 | -0.48750 | 95 ft | 1 kts | 179° |
| 2026-05-05 19:30 | 51.46655 | -0.48750 | 95 ft | 3 kts | 183° |
| 2026-05-05 19:30 | 51.46625 | -0.48759 | 96 ft | 5 kts | 194° |
| 2026-05-05 19:31 | 51.46592 | -0.48774 | 95 ft | 5 kts | 196° |
| 2026-05-05 19:31 | 51.46560 | -0.48789 | 93 ft | 3 kts | 193° |
| 2026-05-05 19:31 | 51.46546 | -0.48789 | 93 ft | 3 kts | 180° |
| 2026-05-05 19:31 | 51.46511 | -0.48773 | 96 ft | 6 kts | 153° |
| 2026-05-05 19:32 | 51.46480 | -0.48717 | 96 ft | 6 kts | 116° |
| 2026-05-05 19:32 | 51.46476 | -0.48658 | 96 ft | 5 kts | 88° |
| 2026-05-05 19:32 | 51.46477 | -0.48608 | 96 ft | 1 kts | 89° |
| 2026-05-05 19:32 | 51.46477 | -0.48607 | 96 ft | 0 kts | 89° |
| 2026-05-05 19:33 | 51.46478 | -0.48487 | 95 ft | 33 kts | 89° |
| 2026-05-05 19:33 | 51.46480 | -0.47749 | 92 ft | 99 kts | 90° |
| 2026-05-05 19:33 | 51.46485 | -0.46323 | 98 ft | 154 kts | 89° |
| 2026-05-05 19:33 | 51.46466 | -0.44514 | 592 ft | 170 kts | 91° |
| 2026-05-05 19:34 | 51.46431 | -0.42603 | 1548 ft | 170 kts | 90° |
| 2026-05-05 19:34 | 51.46258 | -0.40675 | 2143 ft | 187 kts | 108° |
| 2026-05-05 19:34 | 51.45232 | -0.39143 | 2261 ft | 228 kts | 158° |
| 2026-05-05 19:35 | 51.42005 | -0.40750 | 3452 ft | 266 kts | 218° |
| 2026-05-05 19:35 | 51.40562 | -0.42619 | 4408 ft | 269 kts | 220° |
| 2026-05-05 19:35 | 51.39112 | -0.44555 | 5353 ft | 272 kts | 221° |
| 2026-05-05 19:35 | 51.37629 | -0.46532 | 5992 ft | 286 kts | 221° |
| 2026-05-05 19:36 | 51.36303 | -0.48882 | 6180 ft | 287 kts | 249° |
| 2026-05-05 19:36 | 51.36144 | -0.51880 | 7378 ft | 268 kts | 280° |
| 2026-05-05 19:36 | 51.36584 | -0.54831 | 7966 ft | 280 kts | 288° |
| 2026-05-05 19:36 | 51.37186 | -0.57827 | 8004 ft | 281 kts | 290° |
| 2026-05-05 19:37 | 51.37812 | -0.60754 | 8011 ft | 277 kts | 290° |
| 2026-05-05 19:37 | 51.38437 | -0.63627 | 8017 ft | 278 kts | 290° |
| 2026-05-05 19:37 | 51.39089 | -0.66613 | 8011 ft | 281 kts | 290° |
| 2026-05-05 19:37 | 51.39725 | -0.69515 | 7938 ft | 276 kts | 290° |
| 2026-05-05 19:38 | 51.40360 | -0.72411 | 7933 ft | 275 kts | 291° |
| 2026-05-05 19:38 | 51.40995 | -0.75305 | 7930 ft | 274 kts | 291° |
| 2026-05-05 19:38 | 51.41640 | -0.78191 | 7931 ft | 277 kts | 294° |
| 2026-05-05 19:38 | 51.42558 | -0.80900 | 8778 ft | 272 kts | 302° |
| 2026-05-05 19:39 | 51.43516 | -0.83542 | 9698 ft | 277 kts | 299° |
| 2026-05-05 19:39 | 51.44413 | -0.86324 | 10326 ft | 290 kts | 297° |
| 2026-05-05 19:39 | 51.45359 | -0.89360 | 10506 ft | 317 kts | 297° |
| 2026-05-05 19:39 | 51.46392 | -0.92596 | 10731 ft | 340 kts | 298° |
| 2026-05-05 19:40 | 51.47484 | -0.95966 | 11583 ft | 341 kts | 298° |
| 2026-05-05 19:40 | 51.48579 | -0.99375 | 12345 ft | 346 kts | 297° |
| 2026-05-05 19:40 | 51.49684 | -1.02837 | 13138 ft | 350 kts | 297° |
| 2026-05-05 19:40 | 51.50800 | -1.06335 | 13893 ft | 354 kts | 297° |
| 2026-05-05 19:41 | 51.51932 | -1.09880 | 14571 ft | 358 kts | 297° |
| 2026-05-05 19:41 | 51.53074 | -1.13460 | 15224 ft | 362 kts | 297° |
| 2026-05-05 19:41 | 51.54233 | -1.17105 | 15839 ft | 367 kts | 297° |
| 2026-05-05 19:41 | 51.55400 | -1.20776 | 16474 ft | 372 kts | 296° |
| 2026-05-05 19:42 | 51.56582 | -1.24505 | 17098 ft | 377 kts | 296° |
| 2026-05-05 19:42 | 51.57766 | -1.28240 | 17700 ft | 381 kts | 296° |
| 2026-05-05 19:42 | 51.58991 | -1.32113 | 18301 ft | 385 kts | 296° |
| 2026-05-05 19:42 | 51.60140 | -1.35752 | 18857 ft | 387 kts | 296° |
| 2026-05-05 19:43 | 51.61342 | -1.39565 | 19465 ft | 387 kts | 296° |
| 2026-05-05 19:43 | 51.62559 | -1.43429 | 20274 ft | 378 kts | 296° |
| 2026-05-05 19:43 | 51.63707 | -1.47075 | 21882 ft | 350 kts | 296° |
| 2026-05-05 19:43 | 51.64762 | -1.50433 | 23426 ft | 323 kts | 295° |
| 2026-05-05 19:44 | 51.65418 | -1.52525 | 24204 ft | 310 kts | 295° |
| 2026-05-05 19:44 | 51.66389 | -1.55633 | 24685 ft | 312 kts | 295° |
| 2026-05-05 19:44 | 51.67364 | -1.58755 | 25153 ft | 312 kts | 294° |
| 2026-05-05 19:44 | 51.68339 | -1.61873 | 25633 ft | 311 kts | 294° |
| 2026-05-05 19:45 | 51.69322 | -1.65028 | 25768 ft | 323 kts | 294° |
| 2026-05-05 19:45 | 51.70295 | -1.68394 | 25772 ft | 337 kts | 284° |
| 2026-05-05 19:45 | 51.70674 | -1.72146 | 26000 ft | 341 kts | 275° |
| 2026-05-05 19:45 | 51.70968 | -1.75947 | 26526 ft | 340 kts | 275° |
| 2026-05-05 19:46 | 51.71246 | -1.79731 | 27044 ft | 339 kts | 275° |
| 2026-05-05 19:46 | 51.71513 | -1.83510 | 27551 ft | 339 kts | 274° |
| 2026-05-05 19:46 | 51.71782 | -1.87283 | 28071 ft | 339 kts | 274° |
| 2026-05-05 19:46 | 51.72054 | -1.91058 | 28598 ft | 338 kts | 274° |
| 2026-05-05 19:47 | 51.72324 | -1.94834 | 29133 ft | 337 kts | 274° |
| 2026-05-05 19:47 | 51.72589 | -1.98582 | 29655 ft | 337 kts | 274° |
| 2026-05-05 19:47 | 51.72853 | -2.02334 | 30163 ft | 336 kts | 274° |
| 2026-05-05 19:47 | 51.73117 | -2.06088 | 30585 ft | 336 kts | 274° |
| 2026-05-05 19:48 | 51.73376 | -2.09786 | 31020 ft | 336 kts | 274° |
| 2026-05-05 19:48 | 51.73637 | -2.13536 | 31432 ft | 336 kts | 274° |
| 2026-05-05 19:48 | 51.73896 | -2.17277 | 31867 ft | 336 kts | 274° |
| 2026-05-05 19:48 | 51.74154 | -2.21021 | 32278 ft | 336 kts | 275° |
| 2026-05-05 19:49 | 51.74411 | -2.24778 | 32691 ft | 336 kts | 275° |
| 2026-05-05 19:49 | 51.74667 | -2.28526 | 33117 ft | 336 kts | 275° |
| 2026-05-05 19:49 | 51.74922 | -2.32274 | 33547 ft | 335 kts | 275° |
| 2026-05-05 19:49 | 51.75176 | -2.36018 | 33949 ft | 335 kts | 275° |
| 2026-05-05 19:50 | 51.75430 | -2.39804 | 33983 ft | 343 kts | 275° |
| 2026-05-05 19:50 | 51.75936 | -2.47373 | 33982 ft | 334 kts | 275° |
| 2026-05-05 19:51 | 51.76423 | -2.54729 | 34007 ft | 331 kts | 276° |
| 2026-05-05 19:51 | 51.76911 | -2.62181 | 34026 ft | 332 kts | 276° |
| 2026-05-05 19:52 | 51.77392 | -2.69594 | 34046 ft | 340 kts | 276° |
| 2026-05-05 19:52 | 51.77640 | -2.73446 | 34055 ft | 351 kts | 276° |
| 2026-05-05 19:52 | 51.77895 | -2.77436 | 34067 ft | 363 kts | 276° |
| 2026-05-05 19:52 | 51.78159 | -2.81563 | 34074 ft | 375 kts | 276° |
| 2026-05-05 19:53 | 51.78428 | -2.85822 | 34079 ft | 386 kts | 276° |
| 2026-05-05 19:53 | 51.78982 | -2.94650 | 34069 ft | 399 kts | 276° |
| 2026-05-05 19:54 | 51.79537 | -3.03601 | 34051 ft | 400 kts | 276° |
| 2026-05-05 19:54 | 51.80085 | -3.12558 | 34055 ft | 401 kts | 276° |
| 2026-05-05 19:55 | 51.80628 | -3.21550 | 34046 ft | 402 kts | 276° |
| 2026-05-05 19:55 | 51.81162 | -3.30492 | 34031 ft | 402 kts | 276° |
| 2026-05-05 19:56 | 51.81692 | -3.39484 | 34027 ft | 402 kts | 276° |
| 2026-05-05 19:56 | 51.82215 | -3.48487 | 34020 ft | 402 kts | 276° |
| 2026-05-05 19:57 | 51.82996 | -3.57401 | 34025 ft | 400 kts | 283° |
| 2026-05-05 19:57 | 51.84127 | -3.66217 | 34021 ft | 400 kts | 283° |
| 2026-05-05 19:58 | 51.85270 | -3.75034 | 34019 ft | 400 kts | 283° |
| 2026-05-05 19:58 | 51.86394 | -3.83789 | 34020 ft | 399 kts | 283° |
| 2026-05-05 19:59 | 51.87516 | -3.92583 | 34020 ft | 398 kts | 282° |
| 2026-05-05 19:59 | 51.88627 | -4.01350 | 34020 ft | 397 kts | 282° |
| 2026-05-05 20:00 | 51.89728 | -4.10095 | 34019 ft | 395 kts | 282° |
| 2026-05-05 20:00 | 51.90820 | -4.18816 | 34021 ft | 394 kts | 282° |
| 2026-05-05 20:01 | 51.91903 | -4.27523 | 34015 ft | 394 kts | 282° |
| 2026-05-05 20:01 | 51.92970 | -4.36160 | 34017 ft | 393 kts | 282° |
| 2026-05-05 20:02 | 51.94034 | -4.44833 | 34023 ft | 392 kts | 281° |
| 2026-05-05 20:02 | 51.95093 | -4.53507 | 34028 ft | 392 kts | 281° |
| 2026-05-05 20:03 | 51.96145 | -4.62193 | 34027 ft | 392 kts | 281° |
| 2026-05-05 20:03 | 51.97190 | -4.70870 | 34028 ft | 392 kts | 281° |
| 2026-05-05 20:04 | 51.98221 | -4.79488 | 34030 ft | 391 kts | 281° |
| 2026-05-05 20:04 | 51.99251 | -4.88164 | 34031 ft | 391 kts | 281° |
| 2026-05-05 20:05 | 52.00274 | -4.96827 | 34031 ft | 391 kts | 281° |
| 2026-05-05 20:05 | 52.01289 | -5.05488 | 34032 ft | 390 kts | 281° |
| 2026-05-05 20:06 | 52.02298 | -5.14146 | 34032 ft | 390 kts | 280° |
| 2026-05-05 20:06 | 52.03574 | -5.22689 | 34052 ft | 389 kts | 288° |
| 2026-05-05 20:07 | 52.05259 | -5.31085 | 34046 ft | 392 kts | 288° |
| 2026-05-05 20:07 | 52.06951 | -5.39450 | 34055 ft | 392 kts | 288° |